Time;durP1;ratioP1;P1;durP2;ratioP2;P2;SDS_P1;SDS_P2;PMS_P1;PMS_P2;Temp;Humidity;BMP_temperature;BMP_pressure;BME280_temperature;BME280_humidity;BME280_pressure;Samples;Min_cycle;Max_cycle;Signal;HPM_P1;HPM_P2
2022/01/24 00:00:26;;;;;;;;;;;;;;;8.05;61.68;102073.31;4978107;28;102082;-48
2022/01/24 00:02:53;;;;;;;;;;;;;;;8.04;61.91;102071.63;4977977;28;102169;-46
2022/01/24 00:05:19;;;;;;;;;;;;;;;8.05;62.29;102078.75;4984799;28;102419;-48
2022/01/24 00:07:45;;;;;;;;;;;;;;;8.04;62.60;102074.34;4975670;28;103905;-46
2022/01/24 00:10:17;;;;;;;;;;;;;;;8.03;62.29;102070.81;4974915;28;102186;-47
2022/01/24 00:18:05;;;;;;;;;;;;;;;8.04;62.27;102077.06;4977822;28;103873;-45
2022/01/24 00:28:29;;;;;;;;;;;;;;;8.03;62.26;102086.25;4971013;28;103709;-46
2022/01/24 00:30:55;;;;;;;;;;;;;;;8.02;61.99;102080.00;4978742;28;102388;-46
2022/01/24 00:33:21;;;;;;;;;;;;;;;8.02;62.51;102079.19;4975030;28;103330;-46
2022/01/24 00:35:50;;;;;;;;;;;;;;;8.02;62.44;102085.44;4976047;28;102213;-48
2022/01/24 00:38:16;;;;;;;;;;;;;;;8.02;61.96;102084.59;4974753;28;103916;-47
2022/01/24 00:40:45;;;;;;;;;;;;;;;8.01;61.79;102082.97;4973520;28;102172;-49
2022/01/24 00:45:58;;;;;;;;;;;;;;;8.02;61.78;102073.75;4978412;28;102544;-49
2022/01/24 00:54:42;;;;;;;;;;;;;;;8.01;62.48;102077.53;5010128;28;102371;-48
2022/01/24 00:56:46;;;;;;;;;;;;;;;8.02;61.49;102065.63;5020549;27;102839;-49
2022/01/24 00:59:12;;;;;;;;;;;;;;;8.02;61.93;102073.75;5011394;28;103893;-45
2022/01/24 01:01:38;;;;;;;;;;;;;;;8.02;62.15;102071.06;5015211;28;102165;-48
2022/01/24 01:04:04;;;;;;;;;;;;;;;8.01;62.28;102072.13;5021773;27;102461;-48
2022/01/24 01:06:31;;;;;;;;;;;;;;;8.01;62.40;102072.94;5017164;27;102199;-49
2022/01/24 01:19:56;;;;;;;;;;;;;;;8.00;61.99;102065.84;5006350;28;103873;-47
2022/01/24 01:22:23;;;;;;;;;;;;;;;8.00;61.33;102070.44;5002396;28;102225;-49
2022/01/24 01:24:53;;;;;;;;;;;;;;;8.01;62.42;102069.41;5016062;28;102610;-49
2022/01/24 01:27:25;;;;;;;;;;;;;;;8.00;61.91;102070.44;5011674;27;102503;-49
2022/01/24 01:30:00;;;;;;;;;;;;;;;8.00;62.08;102087.53;5013256;28;103995;-47
2022/01/24 01:38:01;;;;;;;;;;;;;;;8.00;62.60;102078.56;5015387;28;102703;-49
2022/01/24 01:56:42;;;;;;;;;;;;;;;7.99;61.89;102079.63;5005478;28;102085;-49
2022/01/24 01:59:09;;;;;;;;;;;;;;;7.99;62.66;102095.88;5017481;28;103043;-46
2022/01/24 02:01:34;;;;;;;;;;;;;;;7.99;62.32;102085.03;5007343;28;102369;-48
2022/01/24 02:04:03;;;;;;;;;;;;;;;7.98;62.33;102078.78;5011374;28;102118;-48
2022/01/24 02:06:29;;;;;;;;;;;;;;;7.98;62.47;102088.81;5014092;28;102278;-49
2022/01/24 02:08:59;;;;;;;;;;;;;;;7.97;62.42;102089.84;5008409;28;102270;-49
2022/01/24 02:11:25;;;;;;;;;;;;;;;7.98;62.38;102083.38;5010519;27;103718;-49
2022/01/24 02:13:51;;;;;;;;;;;;;;;7.98;61.63;102088.81;5017018;27;102522;-47
2022/01/24 02:19:52;;;;;;;;;;;;;;;7.97;62.24;102100.69;5026824;27;102232;-50
2022/01/24 02:24:08;;;;;;;;;;;;;;;7.98;61.83;102099.66;5025116;27;102070;-50
2022/01/24 02:26:34;;;;;;;;;;;;;;;7.97;62.10;102093.41;5022470;27;102223;-49
2022/01/24 02:29:08;;;;;;;;;;;;;;;7.98;61.51;102095.06;5016486;28;102514;-48
2022/01/24 02:31:41;;;;;;;;;;;;;;;7.97;62.15;102103.41;5013596;27;104076;-49
2022/01/24 02:34:21;;;;;;;;;;;;;;;7.97;61.78;102098.84;5003392;28;102500;-47
2022/01/24 02:36:48;;;;;;;;;;;;;;;7.98;61.84;102103.19;5008426;28;102234;-49
2022/01/24 02:50:14;;;;;;;;;;;;;;;7.97;62.21;102115.09;5017111;27;102467;-48
2022/01/24 02:52:42;;;;;;;;;;;;;;;7.97;62.09;102115.09;5015437;27;103824;-49
2022/01/24 02:55:08;;;;;;;;;;;;;;;7.97;61.88;102109.69;5012763;28;102421;-49
2022/01/24 02:57:34;;;;;;;;;;;;;;;7.97;61.52;102115.09;5015650;27;102570;-49
2022/01/24 03:00:00;;;;;;;;;;;;;;;7.98;62.21;102113.22;5013817;28;102397;-46
2022/01/24 03:02:26;;;;;;;;;;;;;;;7.97;62.17;102120.53;5013858;28;103869;-50
2022/01/24 03:04:54;;;;;;;;;;;;;;;7.97;62.29;102114.25;5018821;27;102236;-47
2022/01/24 03:07:21;;;;;;;;;;;;;;;7.97;61.86;102119.66;5013179;27;102316;-49
2022/01/24 03:09:49;;;;;;;;;;;;;;;7.97;62.62;102119.66;5016597;28;102259;-47
2022/01/24 03:12:27;;;;;;;;;;;;;;;7.97;62.39;102122.38;5013081;28;103285;-49
2022/01/24 03:14:53;;;;;;;;;;;;;;;7.95;61.39;102123.44;5022070;28;102256;-48
2022/01/24 03:17:19;;;;;;;;;;;;;;;7.95;61.41;102123.44;5013592;27;104778;-48
2022/01/24 03:19:45;;;;;;;;;;;;;;;7.95;62.16;102123.44;5014787;28;102185;-47
2022/01/24 03:22:11;;;;;;;;;;;;;;;7.97;62.19;102125.09;5014817;28;103903;-48
2022/01/24 03:24:37;;;;;;;;;;;;;;;7.97;61.86;102127.78;5015930;28;102540;-49
2022/01/24 03:27:05;;;;;;;;;;;;;;;7.95;61.92;102123.44;5010249;28;102206;-48
2022/01/24 03:29:33;;;;;;;;;;;;;;;7.97;62.13;102125.94;5015286;27;102202;-48
2022/01/24 03:31:59;;;;;;;;;;;;;;;7.95;62.57;102131.56;5018785;28;103870;-49
2022/01/24 03:34:25;;;;;;;;;;;;;;;7.95;62.13;102123.44;5017716;27;102392;-47
2022/01/24 03:36:51;;;;;;;;;;;;;;;7.95;62.31;102126.13;5023605;27;102226;-48
2022/01/24 03:39:17;;;;;;;;;;;;;;;7.95;62.12;102130.75;5018274;27;102204;-46
2022/01/24 03:41:43;;;;;;;;;;;;;;;7.95;61.70;102136.16;5017462;27;103901;-46
2022/01/24 03:44:13;;;;;;;;;;;;;;;7.95;62.25;102142.41;5016227;27;102240;-48
2022/01/24 03:47:01;;;;;;;;;;;;;;;7.95;61.55;102142.41;5032498;27;102337;-45
2022/01/24 03:49:48;;;;;;;;;;;;;;;7.95;62.27;102147.81;5017676;28;102673;-48
2022/01/24 03:52:14;;;;;;;;;;;;;;;7.95;61.60;102147.81;5018450;27;103690;-48
2022/01/24 03:54:43;;;;;;;;;;;;;;;7.94;61.30;102146.19;5016758;28;102094;-47
2022/01/24 03:57:10;;;;;;;;;;;;;;;7.94;61.75;102148.88;5020368;28;102277;-47
2022/01/24 03:59:37;;;;;;;;;;;;;;;7.95;61.76;102149.72;5013401;27;102291;-46
2022/01/24 04:02:04;;;;;;;;;;;;;;;7.93;62.45;102141.81;5032052;27;103921;-47
2022/01/24 04:04:31;;;;;;;;;;;;;;;7.94;61.60;102154.31;5020212;27;102616;-46
2022/01/24 04:06:57;;;;;;;;;;;;;;;7.93;62.32;102158.06;5022755;28;102252;-48
2022/01/24 04:09:23;;;;;;;;;;;;;;;7.93;61.94;102147.22;5013671;28;102668;-49
2022/01/24 04:11:53;;;;;;;;;;;;;;;7.93;62.57;102158.06;5017653;27;104088;-49
2022/01/24 04:22:09;;;;;;;;;;;;;;;7.92;62.05;102159.09;5017774;27;103975;-46
2022/01/24 04:24:36;;;;;;;;;;;;;;;7.91;62.19;102154.75;5027958;27;102373;-48
2022/01/24 04:27:02;;;;;;;;;;;;;;;7.91;61.93;102160.16;5025064;27;102293;-48
2022/01/24 04:29:28;;;;;;;;;;;;;;;7.91;61.36;102175.59;5018100;27;102173;-49
2022/01/24 04:31:54;;;;;;;;;;;;;;;7.90;61.24;102169.34;5012104;27;103777;-48
2022/01/24 04:34:22;;;;;;;;;;;;;;;7.91;61.63;102187.28;5022130;27;102252;-49
2022/01/24 04:36:48;;;;;;;;;;;;;;;7.91;62.56;102171.00;5015405;27;102321;-47
2022/01/24 04:39:15;;;;;;;;;;;;;;;7.90;61.67;102180.19;5022524;27;102617;-49
2022/01/24 04:41:44;;;;;;;;;;;;;;;7.89;62.12;102183.94;5021182;27;103688;-47
2022/01/24 04:57:04;;;;;;;;;;;;;;;7.89;61.39;102185.81;5028467;27;102207;-48
2022/01/24 04:59:31;;;;;;;;;;;;;;;7.89;61.82;102183.09;5018346;28;102206;-50
2022/01/24 05:01:57;;;;;;;;;;;;;;;7.89;61.93;102193.94;5019053;28;103872;-48
2022/01/24 05:04:23;;;;;;;;;;;;;;;7.88;61.66;102192.28;5026368;27;102199;-48
2022/01/24 05:06:49;;;;;;;;;;;;;;;7.87;61.57;102191.47;5015505;27;102193;-47
2022/01/24 05:09:18;;;;;;;;;;;;;;;7.87;62.05;102196.06;5016328;27;102335;-47
2022/01/24 05:12:03;;;;;;;;;;;;;;;7.87;62.35;102207.72;5016858;28;103986;-48
2022/01/24 05:25:30;;;;;;;;;;;;;;;7.86;61.67;102213.34;5009817;28;102513;-49
2022/01/24 05:27:56;;;;;;;;;;;;;;;7.87;61.19;102218.56;5007820;28;102240;-49
2022/01/24 05:30:23;;;;;;;;;;;;;;;7.87;61.58;102226.72;5006219;28;102302;-47
2022/01/24 05:32:49;;;;;;;;;;;;;;;7.86;61.99;102224.19;5015632;27;103857;-50
2022/01/24 05:35:15;;;;;;;;;;;;;;;7.87;61.70;102225.88;5011996;27;102082;-47
2022/01/24 05:37:41;;;;;;;;;;;;;;;7.85;61.81;102226.06;5012183;27;102316;-50
2022/01/24 05:40:08;;;;;;;;;;;;;;;7.85;61.73;102231.50;5016960;27;102301;-46
2022/01/24 05:42:36;;;;;;;;;;;;;;;7.86;61.69;102233.19;5013913;27;104115;-47
2022/01/24 05:45:02;;;;;;;;;;;;;;;7.85;61.76;102236.91;5013385;28;102221;-46
2022/01/24 05:47:28;;;;;;;;;;;;;;;7.84;62.29;102246.09;5016297;27;102435;-49
2022/01/24 05:49:54;;;;;;;;;;;;;;;7.86;61.99;102254.00;5018232;27;102125;-48
2022/01/24 05:52:20;;;;;;;;;;;;;;;7.85;62.07;102241.50;5014573;28;104151;-49
2022/01/24 05:54:46;;;;;;;;;;;;;;;7.84;61.99;102240.69;5014333;28;103371;-46
2022/01/24 05:57:12;;;;;;;;;;;;;;;7.85;61.78;102246.94;5011322;27;103729;-47
2022/01/24 05:59:40;;;;;;;;;;;;;;;7.86;62.01;102245.88;5014056;28;102436;-48
2022/01/24 06:02:06;;;;;;;;;;;;;;;7.84;62.11;102256.94;5008581;28;104453;-49
2022/01/24 06:04:33;;;;;;;;;;;;;;;7.84;62.49;102248.81;5016153;27;102084;-48
2022/01/24 06:06:59;;;;;;;;;;;;;;;7.84;62.01;102251.53;5014660;27;102429;-47
2022/01/24 06:09:25;;;;;;;;;;;;;;;7.84;61.64;102254.25;5027191;27;102570;-48
2022/01/24 06:11:51;;;;;;;;;;;;;;;7.84;61.43;102253.41;5015585;28;104211;-48
2022/01/24 06:14:18;;;;;;;;;;;;;;;7.84;62.42;102259.66;5022526;27;102346;-49
2022/01/24 06:16:45;;;;;;;;;;;;;;;7.83;62.31;102252.59;5008258;28;103539;-46
2022/01/24 06:19:11;;;;;;;;;;;;;;;7.83;61.72;102258.00;5013834;28;102687;-50
2022/01/24 06:21:37;;;;;;;;;;;;;;;7.83;62.15;102255.28;5011183;27;103882;-48
2022/01/24 06:24:03;;;;;;;;;;;;;;;7.83;62.08;102258.00;5013650;28;102460;-50
2022/01/24 06:26:29;;;;;;;;;;;;;;;7.84;61.45;102267.78;5024415;27;102431;-49
2022/01/24 06:28:56;;;;;;;;;;;;;;;7.83;61.84;102271.56;5010514;28;102692;-49
2022/01/24 06:31:22;;;;;;;;;;;;;;;7.83;61.94;102260.72;5012871;28;103971;-50
2022/01/24 06:33:50;;;;;;;;;;;;;;;7.84;61.18;102272.38;5014241;28;102229;-48
2022/01/24 06:36:16;;;;;;;;;;;;;;;7.83;61.42;102268.03;5015573;28;102365;-49
2022/01/24 06:38:42;;;;;;;;;;;;;;;7.84;62.10;102273.22;5007915;28;102297;-50
2022/01/24 06:41:08;;;;;;;;;;;;;;;7.84;62.11;102267.78;5011021;28;103895;-49
2022/01/24 06:43:34;;;;;;;;;;;;;;;7.83;61.68;102266.13;5017165;28;102137;-49
2022/01/24 06:46:01;;;;;;;;;;;;;;;7.84;61.65;102272.38;5010420;27;102572;-50
2022/01/24 06:48:27;;;;;;;;;;;;;;;7.83;61.87;102271.56;5013222;27;102164;-50
2022/01/24 06:50:55;;;;;;;;;;;;;;;7.84;61.50;102281.34;5029565;27;104049;-47
2022/01/24 06:53:21;;;;;;;;;;;;;;;7.84;61.86;102278.63;5006435;27;102775;-52
2022/01/24 06:55:47;;;;;;;;;;;;;;;7.84;61.48;102278.63;5003318;28;101977;-49
2022/01/24 06:58:13;;;;;;;;;;;;;;;7.84;62.09;102267.78;5008503;28;103766;-49
2022/01/24 07:00:39;;;;;;;;;;;;;;;7.85;61.66;102284.88;5011078;28;104885;-48
2022/01/24 07:03:05;;;;;;;;;;;;;;;7.84;62.08;102273.22;5003362;28;102304;-49
2022/01/24 07:05:31;;;;;;;;;;;;;;;7.84;62.09;102275.09;5010380;28;102283;-48
2022/01/24 07:07:59;;;;;;;;;;;;;;;7.84;61.64;102278.63;5011224;28;102162;-50
2022/01/24 07:10:26;;;;;;;;;;;;;;;7.84;61.36;102278.63;5009085;27;103749;-49
2022/01/24 07:12:52;;;;;;;;;;;;;;;7.85;61.52;102280.28;5015233;28;102419;-49
2022/01/24 07:15:20;;;;;;;;;;;;;;;7.84;61.52;102267.78;5015635;27;102144;-50
2022/01/24 07:20:18;;;;;;;;;;;;;;;7.83;62.29;102266.13;5004770;27;103920;-47
2022/01/24 07:22:44;;;;;;;;;;;;;;;7.83;62.46;102276.97;5008990;28;102375;-49
2022/01/24 07:25:12;;;;;;;;;;;;;;;7.84;61.90;102269.69;5004538;28;102709;-48
2022/01/24 07:27:38;;;;;;;;;;;;;;;7.83;62.21;102271.56;5016562;27;102375;-49
2022/01/24 07:30:05;;;;;;;;;;;;;;;7.83;61.92;102274.25;5006609;28;104057;-47
2022/01/24 07:32:31;;;;;;;;;;;;;;;7.83;62.46;102266.13;5011348;28;103915;-47
2022/01/24 07:34:58;;;;;;;;;;;;;;;7.84;61.76;102277.81;5014006;28;102697;-48
2022/01/24 07:37:25;;;;;;;;;;;;;;;7.84;61.63;102272.38;5007711;27;102164;-49
2022/01/24 07:39:51;;;;;;;;;;;;;;;7.84;61.15;102272.38;5004516;28;104672;-49
2022/01/24 07:42:29;;;;;;;;;;;;;;;7.83;61.36;102259.88;5005117;28;104871;-49
2022/01/24 07:44:55;;;;;;;;;;;;;;;7.83;61.48;102260.72;5004388;28;104548;-50
2022/01/24 07:47:21;;;;;;;;;;;;;;;7.82;61.69;102253.59;5015531;28;102184;-48
2022/01/24 07:49:47;;;;;;;;;;;;;;;7.83;61.13;102265.31;5006379;27;103966;-50
2022/01/24 07:52:13;;;;;;;;;;;;;;;7.82;61.63;102264.44;5003285;28;102422;-49
2022/01/24 07:54:39;;;;;;;;;;;;;;;7.82;61.68;102259.03;5006795;28;103991;-48
2022/01/24 07:57:05;;;;;;;;;;;;;;;7.81;61.82;102254.66;5009770;28;102337;-50
2022/01/24 07:59:33;;;;;;;;;;;;;;;7.82;61.41;102264.44;5015074;28;103902;-50
2022/01/24 08:01:59;;;;;;;;;;;;;;;7.82;61.54;102274.47;5005789;28;102317;-50
2022/01/24 08:04:25;;;;;;;;;;;;;;;7.81;62.32;102262.78;5005906;27;102219;-48
2022/01/24 08:06:51;;;;;;;;;;;;;;;7.81;62.06;102279.06;5002365;28;103704;-47
2022/01/24 08:09:17;;;;;;;;;;;;;;;7.81;61.82;102268.22;5007824;28;104110;-49
2022/01/24 08:11:43;;;;;;;;;;;;;;;7.81;61.52;102268.22;5008900;27;102333;-49
2022/01/24 08:14:10;;;;;;;;;;;;;;;7.81;61.29;102284.47;5012065;28;102581;-50
2022/01/24 08:16:40;;;;;;;;;;;;;;;7.80;61.85;102271.97;5003065;28;102591;-48
2022/01/24 08:19:06;;;;;;;;;;;;;;;7.80;61.41;102271.97;5007943;28;103968;-47
2022/01/24 08:21:32;;;;;;;;;;;;;;;7.80;61.57;102280.13;5010276;27;102204;-46
2022/01/24 08:23:58;;;;;;;;;;;;;;;7.80;61.63;102284.72;5016954;27;102392;-49
2022/01/24 08:26:24;;;;;;;;;;;;;;;7.80;61.79;102285.53;5014740;28;103058;-50
2022/01/24 08:28:50;;;;;;;;;;;;;;;7.79;61.85;102286.59;5010686;27;103750;-48
2022/01/24 08:31:16;;;;;;;;;;;;;;;7.79;61.69;102273.03;5013759;27;102753;-49
2022/01/24 08:33:44;;;;;;;;;;;;;;;7.79;61.91;102270.31;5011570;27;102786;-48
2022/01/24 08:36:10;;;;;;;;;;;;;;;7.79;61.86;102266.75;5008880;28;103420;-48
2022/01/24 08:38:36;;;;;;;;;;;;;;;7.79;61.82;102272.19;5007557;28;103479;-49
2022/01/24 08:41:09;;;;;;;;;;;;;;;7.77;62.14;102266.97;5011176;27;102499;-47
2022/01/24 08:43:39;;;;;;;;;;;;;;;7.77;61.58;102266.97;5025916;27;102214;-48
2022/01/24 08:46:05;;;;;;;;;;;;;;;7.77;61.99;102268.88;5005693;27;102609;-49
2022/01/24 08:48:32;;;;;;;;;;;;;;;7.77;62.02;102271.56;5004212;27;103913;-49
2022/01/24 08:51:00;;;;;;;;;;;;;;;7.77;61.42;102272.41;5005347;28;102073;-49
2022/01/24 08:53:30;;;;;;;;;;;;;;;7.77;60.94;102277.81;5014050;28;103538;-49
2022/01/24 08:55:56;;;;;;;;;;;;;;;7.75;61.92;102274.47;5012716;27;102096;-48
2022/01/24 08:58:24;;;;;;;;;;;;;;;7.76;61.57;102269.94;5009742;28;103885;-49
2022/01/24 09:00:50;;;;;;;;;;;;;;;7.75;61.26;102271.78;5005752;28;102756;-50
2022/01/24 09:03:16;;;;;;;;;;;;;;;7.75;61.42;102271.78;5002128;28;102340;-47
2022/01/24 09:05:42;;;;;;;;;;;;;;;7.75;61.84;102277.19;5008515;28;102647;-46
2022/01/24 09:08:10;;;;;;;;;;;;;;;7.75;61.10;102279.06;5004160;28;104298;-48
2022/01/24 09:10:38;;;;;;;;;;;;;;;7.75;61.39;102281.78;5008801;27;103499;-50
2022/01/24 09:13:04;;;;;;;;;;;;;;;7.75;61.23;102285.31;5007606;27;102448;-48
2022/01/24 09:15:31;;;;;;;;;;;;;;;7.74;61.70;102289.09;5007614;28;102534;-48
2022/01/24 09:17:57;;;;;;;;;;;;;;;7.75;61.20;102293.47;5008816;28;103875;-47
2022/01/24 09:20:23;;;;;;;;;;;;;;;7.73;61.56;102284.72;5013784;27;102495;-50
2022/01/24 09:22:50;;;;;;;;;;;;;;;7.74;61.87;102274.72;5007347;28;103310;-47
2022/01/24 09:25:19;;;;;;;;;;;;;;;7.74;61.56;102278.25;5009702;28;102291;-48
2022/01/24 09:27:45;;;;;;;;;;;;;;;7.73;61.67;102273.88;5004364;28;103986;-49
2022/01/24 09:30:13;;;;;;;;;;;;;;;7.73;60.77;102276.59;5003266;28;102258;-48
2022/01/24 09:32:39;;;;;;;;;;;;;;;7.73;61.04;102279.31;5006391;28;103181;-49
2022/01/24 09:35:07;;;;;;;;;;;;;;;7.74;61.13;102261.16;5009760;28;102661;-47
2022/01/24 09:37:33;;;;;;;;;;;;;;;7.72;61.62;102247.84;5008621;27;103853;-46
2022/01/24 09:39:59;;;;;;;;;;;;;;;7.73;61.03;102259.50;5007478;27;102191;-49
2022/01/24 09:42:27;;;;;;;;;;;;;;;7.73;61.41;102259.50;5011484;27;102418;-48
2022/01/24 09:44:53;;;;;;;;;;;;;;;7.72;61.62;102258.69;5012503;27;102530;-49
2022/01/24 09:47:19;;;;;;;;;;;;;;;7.73;61.22;102270.34;5003238;28;104169;-51
2022/01/24 09:49:46;;;;;;;;;;;;;;;7.72;61.21;102269.53;5010760;28;103515;-49
2022/01/24 09:52:12;;;;;;;;;;;;;;;7.72;61.05;102269.53;5008655;27;103349;-49
2022/01/24 09:54:38;;;;;;;;;;;;;;;7.72;60.99;102272.22;5008599;27;102138;-48
2022/01/24 09:57:04;;;;;;;;;;;;;;;7.72;60.98;102274.94;5012860;28;103645;-51
2022/01/24 09:59:32;;;;;;;;;;;;;;;7.71;61.22;102263.25;5007891;27;102403;-49
2022/01/24 10:01:58;;;;;;;;;;;;;;;7.72;61.61;102277.66;5006739;27;103547;-49
2022/01/24 10:04:25;;;;;;;;;;;;;;;7.71;61.95;102273.25;5005109;27;102287;-49
2022/01/24 10:06:55;;;;;;;;;;;;;;;7.72;61.03;102272.22;5007746;28;103970;-49
2022/01/24 10:09:25;;;;;;;;;;;;;;;7.71;61.99;102270.53;5018106;28;102156;-47
2022/01/24 10:12:01;;;;;;;;;;;;;;;7.72;61.53;102280.38;5014533;27;102086;-48
2022/01/24 10:17:20;;;;;;;;;;;;;;;7.71;61.35;102275.97;5003670;27;107781;-49
2022/01/24 10:19:46;;;;;;;;;;;;;;;7.71;61.47;102262.41;5005476;28;102121;-50
2022/01/24 10:22:12;;;;;;;;;;;;;;;7.71;61.11;102267.84;5000803;27;102510;-48
2022/01/24 10:24:40;;;;;;;;;;;;;;;7.72;60.65;102274.94;5008133;28;102439;-49
2022/01/24 10:27:08;;;;;;;;;;;;;;;7.73;60.95;102270.34;5012392;28;104094;-47
2022/01/24 10:29:39;;;;;;;;;;;;;;;7.71;61.07;102268.66;5006388;28;102246;-49
2022/01/24 10:32:05;;;;;;;;;;;;;;;7.71;61.45;102267.84;5010785;27;102189;-50
2022/01/24 10:34:36;;;;;;;;;;;;;;;7.72;61.64;102269.53;5019003;28;102663;-47
2022/01/24 10:37:03;;;;;;;;;;;;;;;7.72;61.56;102269.53;5012788;28;103884;-49
2022/01/24 10:39:43;;;;;;;;;;;;;;;7.71;61.61;102268.66;5007129;28;102712;-46
2022/01/24 10:42:28;;;;;;;;;;;;;;;7.71;61.99;102278.66;5008306;27;102486;-48
2022/01/24 10:44:58;;;;;;;;;;;;;;;7.72;61.33;102280.38;5007660;27;102589;-50
2022/01/24 10:47:27;;;;;;;;;;;;;;;7.73;60.59;102273.06;5007029;28;103958;-47
2022/01/24 10:49:54;;;;;;;;;;;;;;;7.72;60.82;102274.94;5009498;28;102443;-46
2022/01/24 10:52:21;;;;;;;;;;;;;;;7.73;61.41;102276.59;5005667;28;102564;-48
2022/01/24 10:54:48;;;;;;;;;;;;;;;7.73;61.42;102276.59;5013044;27;103002;-48
2022/01/24 10:57:21;;;;;;;;;;;;;;;7.73;61.47;102276.59;5005258;28;106347;-49
2022/01/24 10:59:48;;;;;;;;;;;;;;;7.73;61.40;102281.19;5004723;28;102370;-51
2022/01/24 11:02:16;;;;;;;;;;;;;;;7.73;61.54;102281.19;5006188;27;102436;-48
2022/01/24 11:04:42;;;;;;;;;;;;;;;7.73;61.00;102287.44;5006852;28;102710;-47
2022/01/24 11:07:09;;;;;;;;;;;;;;;7.74;61.00;102288.25;5008503;27;103810;-51
2022/01/24 11:09:36;;;;;;;;;;;;;;;7.73;61.31;102278.47;5005630;27;104147;-50
2022/01/24 11:12:09;;;;;;;;;;;;;;;7.74;61.22;102283.66;5011803;28;102297;-48
2022/01/24 11:14:36;;;;;;;;;;;;;;;7.73;60.57;102282.00;5011208;28;102446;-48
2022/01/24 11:17:03;;;;;;;;;;;;;;;7.74;61.55;102289.09;5009136;28;103986;-49
2022/01/24 11:19:42;;;;;;;;;;;;;;;7.74;61.42;102289.09;5004513;28;104365;-49
2022/01/24 11:22:18;;;;;;;;;;;;;;;7.75;61.05;102288.03;5004192;28;102764;-48
2022/01/24 11:24:51;;;;;;;;;;;;;;;7.75;61.37;102285.31;5012064;28;102315;-48
2022/01/24 11:27:17;;;;;;;;;;;;;;;7.75;61.07;102287.22;5003326;28;103769;-49
2022/01/24 11:29:43;;;;;;;;;;;;;;;7.75;61.43;102293.47;5001367;28;102186;-49
2022/01/24 11:32:15;;;;;;;;;;;;;;;7.75;61.36;102296.16;5007713;28;102797;-48
2022/01/24 11:34:47;;;;;;;;;;;;;;;7.76;60.53;102287.00;5018113;27;102409;-48
2022/01/24 11:37:29;;;;;;;;;;;;;;;7.76;61.33;102291.59;5012731;28;103872;-50
2022/01/24 11:39:55;;;;;;;;;;;;;;;7.74;60.89;102280.97;5003276;28;102540;-48
2022/01/24 11:42:27;;;;;;;;;;;;;;;7.76;60.93;102281.59;5008751;28;102426;-48
2022/01/24 11:44:53;;;;;;;;;;;;;;;7.76;61.62;102287.00;5011556;28;102148;-51
2022/01/24 11:47:21;;;;;;;;;;;;;;;7.76;60.84;102287.00;5010694;27;103536;-50
2022/01/24 11:49:52;;;;;;;;;;;;;;;7.74;61.04;102283.66;5009655;28;102101;-50
2022/01/24 11:52:18;;;;;;;;;;;;;;;7.76;60.66;102287.00;5014350;27;103244;-49
2022/01/24 11:55:31;;;;;;;;;;;;;;;7.76;61.38;102278.88;5031182;27;103161;-48
2022/01/24 11:57:34;;;;;;;;;;;;;;;7.76;61.47;102276.16;5005361;28;103949;-50
2022/01/24 12:00:18;;;;;;;;;;;;;;;7.76;61.39;102278.88;5006736;28;103396;-49
2022/01/24 12:02:47;;;;;;;;;;;;;;;7.78;61.42;102284.06;5011164;28;102959;-50
2022/01/24 12:05:15;;;;;;;;;;;;;;;7.78;61.84;102281.38;5014773;27;102326;-48
2022/01/24 12:07:43;;;;;;;;;;;;;;;7.78;60.60;102284.91;5005079;28;103935;-49
2022/01/24 12:10:36;;;;;;;;;;;;;;;7.79;61.72;102280.31;5013673;27;102035;-47
2022/01/24 12:13:03;;;;;;;;;;;;;;;7.79;61.50;102286.59;5014000;27;102447;-50
2022/01/24 12:16:03;;;;;;;;;;;;;;;7.80;61.40;102273.88;5010334;27;102758;-47
2022/01/24 12:18:48;;;;;;;;;;;;;;;7.80;60.94;102276.56;5009597;27;104170;-48
2022/01/24 12:21:16;;;;;;;;;;;;;;;7.80;61.56;102277.41;5007337;27;102240;-49
2022/01/24 12:23:44;;;;;;;;;;;;;;;7.80;61.24;102282.81;5008506;28;103631;-49
2022/01/24 12:26:20;;;;;;;;;;;;;;;7.81;61.27;102278.22;5010635;27;102182;-49
2022/01/24 12:28:47;;;;;;;;;;;;;;;7.82;61.57;102277.16;5005435;28;106640;-49
2022/01/24 12:31:42;;;;;;;;;;;;;;;7.81;61.55;102279.06;5007241;28;102795;-50
2022/01/24 12:34:28;;;;;;;;;;;;;;;7.82;61.99;102282.59;5004637;28;102702;-50
2022/01/24 12:37:09;;;;;;;;;;;;;;;7.82;60.98;102280.72;5008712;27;102341;-48
2022/01/24 12:39:47;;;;;;;;;;;;;;;7.82;60.70;102274.47;5012865;27;108030;-51
2022/01/24 12:42:20;;;;;;;;;;;;;;;7.83;61.37;102276.16;5014180;27;102554;-48
2022/01/24 12:47:14;;;;;;;;;;;;;;;7.83;61.30;102276.97;5006944;28;103283;-51
2022/01/24 12:49:41;;;;;;;;;;;;;;;7.83;60.94;102284.28;5008149;27;103876;-51
2022/01/24 12:52:09;;;;;;;;;;;;;;;7.83;60.97;102276.97;5018351;27;102174;-48
2022/01/24 12:54:37;;;;;;;;;;;;;;;7.84;61.14;102278.63;5010623;28;102959;-48
2022/01/24 12:57:07;;;;;;;;;;;;;;;7.84;61.49;102283.22;5022255;27;102644;-47
2022/01/24 12:59:34;;;;;;;;;;;;;;;7.84;61.15;102283.22;5015456;28;104573;-52
2022/01/24 13:02:02;;;;;;;;;;;;;;;7.84;61.13;102284.06;5010808;27;102479;-51
2022/01/24 13:04:33;;;;;;;;;;;;;;;7.84;61.05;102284.06;5016609;28;102216;-50
2022/01/24 13:06:59;;;;;;;;;;;;;;;7.84;60.65;102278.63;5012036;27;102272;-50
2022/01/24 13:09:27;;;;;;;;;;;;;;;7.84;61.50;102294.91;5014752;27;103924;-48
2022/01/24 13:11:54;;;;;;;;;;;;;;;7.85;61.38;102301.16;5010914;28;101958;-48
2022/01/24 13:14:33;;;;;;;;;;;;;;;7.84;61.58;102291.34;5006549;28;103774;-47
2022/01/24 13:22:49;;;;;;;;;;;;;;;7.84;61.51;102292.19;5014546;28;102258;-48
2022/01/24 13:25:29;;;;;;;;;;;;;;;7.84;60.84;102286.75;5016372;27;102166;-48
2022/01/24 13:27:57;;;;;;;;;;;;;;;7.84;61.15;102289.47;5005044;27;103826;-49
2022/01/24 13:30:24;;;;;;;;;;;;;;;7.84;61.50;102292.19;5008727;27;103811;-50
2022/01/24 13:32:51;;;;;;;;;;;;;;;7.85;61.43;102293.00;5012912;28;102037;-48
2022/01/24 13:35:23;;;;;;;;;;;;;;;7.84;61.95;102300.31;5009798;27;102337;-48
2022/01/24 13:37:50;;;;;;;;;;;;;;;7.84;61.76;102294.91;5015785;27;102570;-49
2022/01/24 13:40:30;;;;;;;;;;;;;;;7.84;61.07;102297.59;5006446;27;104755;-47
2022/01/24 13:42:56;;;;;;;;;;;;;;;7.85;61.06;102307.41;5011635;28;102607;-49
2022/01/24 13:45:22;;;;;;;;;;;;;;;7.84;61.42;102297.59;5008026;28;103391;-48
2022/01/24 13:47:54;;;;;;;;;;;;;;;7.84;61.12;102305.75;5014273;28;102412;-49
2022/01/24 13:50:20;;;;;;;;;;;;;;;7.85;61.88;102306.56;5011458;28;104001;-50
2022/01/24 13:52:48;;;;;;;;;;;;;;;7.85;61.12;102309.28;5005864;27;102104;-49
2022/01/24 13:55:15;;;;;;;;;;;;;;;7.85;60.82;102307.41;5009085;27;102773;-48
2022/01/24 13:57:46;;;;;;;;;;;;;;;7.85;61.02;102307.41;5012495;28;102504;-49
2022/01/24 14:00:12;;;;;;;;;;;;;;;7.85;61.53;102306.56;5009206;27;104375;-48
2022/01/24 14:02:38;;;;;;;;;;;;;;;7.85;61.17;102318.22;5013555;27;102530;-48
2022/01/24 14:05:05;;;;;;;;;;;;;;;7.86;61.58;102310.94;5013430;28;102591;-49
2022/01/24 14:07:33;;;;;;;;;;;;;;;7.87;61.22;102324.28;5007991;28;102381;-50
2022/01/24 14:10:02;;;;;;;;;;;;;;;7.85;61.95;102315.53;5001806;28;103378;-50
2022/01/24 14:12:42;;;;;;;;;;;;;;;7.85;60.57;102304.69;5008064;28;102158;-49
2022/01/24 14:18:19;;;;;;;;;;;;;;;7.84;61.48;102308.44;5002788;28;104061;-49
2022/01/24 14:20:37;;;;;;;;;;;;;;;7.84;61.58;102310.34;5007384;28;104037;-48
2022/01/24 14:23:03;;;;;;;;;;;;;;;7.84;61.28;102311.16;5004584;28;103128;-49
2022/01/24 14:25:34;;;;;;;;;;;;;;;7.84;61.19;102313.88;5025443;28;102401;-47
2022/01/24 14:28:07;;;;;;;;;;;;;;;7.85;61.35;102306.56;5019187;27;102238;-47
2022/01/24 14:30:37;;;;;;;;;;;;;;;7.84;61.91;102311.16;5008699;28;104020;-47
2022/01/24 14:33:04;;;;;;;;;;;;;;;7.84;61.37;102313.88;5007326;28;102154;-47
2022/01/24 14:35:37;;;;;;;;;;;;;;;7.84;61.21;102311.16;5012705;28;102450;-49
2022/01/24 14:38:05;;;;;;;;;;;;;;;7.84;62.01;102322.00;5011994;28;102145;-50
2022/01/24 14:40:32;;;;;;;;;;;;;;;7.83;61.20;102314.94;5006269;28;103573;-47